Time;durP1;ratioP1;P1;durP2;ratioP2;P2;SDS_P1;SDS_P2;PMS_P1;PMS_P2;Temp;Humidity;BMP_temperature;BMP_pressure;BME280_temperature;BME280_humidity;BME280_pressure;Samples;Min_cycle;Max_cycle;Signal;HPM_P1;HPM_P2
2023/06/17 04:19:02;;;;;;;10.25;6.20;;;;;;;12.31;75.46;96523.28;2084527;28;20567;-60
2023/06/17 04:20:10;;;;;;;12.52;6.85;;;;;;;12.27;75.86;96521.75;2082489;28;20287;-60
2023/06/17 08:14:57;;;;;;;8.82;4.53;;;;;;;24.96;38.87;96544.41;2083452;28;20556;-58
2023/06/17 08:17:02;;;;;;;8.00;4.75;;;;;;;24.84;39.08;96551.88;2084428;28;20565;-58
2023/06/17 08:19:28;;;;;;;9.00;4.57;;;;;;;25.20;38.91;96553.50;2086958;28;21028;-58
2023/06/17 08:20:30;;;;;;;6.22;3.97;;;;;;;25.18;38.25;96552.81;2088965;28;20290;-58
2023/06/17 08:21:31;;;;;;;8.70;4.70;;;;;;;25.12;38.17;96545.47;2086949;28;20200;-58
2023/06/17 08:22:33;;;;;;;6.85;4.30;;;;;;;25.34;38.48;96544.84;2078083;28;20359;-58
2023/06/17 08:23:34;;;;;;;7.28;3.75;;;;;;;25.58;38.27;96546.78;2071030;28;20232;-58
2023/06/17 08:24:36;;;;;;;7.65;4.75;;;;;;;25.67;37.85;96542.25;2072231;28;20251;-58
2023/06/17 08:25:39;;;;;;;12.18;4.78;;;;;;;25.86;37.85;96542.94;2074764;28;20244;-58
2023/06/17 08:26:42;;;;;;;8.32;4.20;;;;;;;25.67;37.17;96544.91;2073490;28;20204;-58
2023/06/17 08:27:50;;;;;;;8.10;3.63;;;;;;;25.40;37.88;96544.22;2067552;28;20625;-58
2023/06/17 08:28:52;;;;;;;4.60;3.50;;;;;;;25.84;37.04;96550.28;2064154;28;20233;-58
2023/06/17 08:29:53;;;;;;;8.20;4.18;;;;;;;25.41;36.60;96542.41;2065369;28;20198;-58
2023/06/17 08:30:55;;;;;;;10.57;4.03;;;;;;;25.13;36.76;96539.97;2062676;28;20314;-58
2023/06/17 08:31:56;;;;;;;6.70;3.88;;;;;;;25.10;36.99;96542.94;2065196;28;20202;-57
2023/06/17 08:32:58;;;;;;;8.20;3.83;;;;;;;25.24;36.64;96537.00;2063202;28;20253;-58
2023/06/17 08:34:00;;;;;;;8.75;4.03;;;;;;;25.33;36.73;96534.31;2067321;28;20232;-58
2023/06/17 08:35:06;;;;;;;7.70;4.30;;;;;;;25.40;37.17;96538.06;2066548;28;20241;-58
2023/06/17 08:36:07;;;;;;;9.82;4.20;;;;;;;25.31;38.18;96539.00;2065104;28;20236;-58
2023/06/17 08:37:09;;;;;;;9.73;4.13;;;;;;;25.71;37.78;96537.41;2064307;28;20198;-57
2023/06/17 08:38:10;;;;;;;6.13;3.83;;;;;;;25.34;38.24;96538.69;2066451;28;20198;-57
2023/06/17 08:39:12;;;;;;;7.00;4.35;;;;;;;25.40;38.24;96533.53;2064830;28;20210;-58
2023/06/17 08:40:15;;;;;;;27.48;4.45;;;;;;;25.33;37.92;96531.66;2065084;28;20226;-57
2023/06/17 08:41:17;;;;;;;13.25;4.45;;;;;;;25.27;37.82;96528.63;2065625;28;20281;-57
2023/06/17 08:42:19;;;;;;;10.23;4.65;;;;;;;25.23;37.97;96529.97;2066268;28;20226;-58
2023/06/17 08:43:20;;;;;;;12.00;3.95;;;;;;;25.45;38.02;96532.22;2062544;28;20210;-58
2023/06/17 08:44:24;;;;;;;8.43;4.43;;;;;;;25.73;38.06;96530.06;2063791;28;20226;-58
2023/06/17 08:45:26;;;;;;;10.25;4.15;;;;;;;25.99;37.20;96537.94;2065563;28;20717;-58
2023/06/17 08:46:28;;;;;;;8.88;5.57;;;;;;;26.08;37.63;96538.78;2064867;28;20600;-58
2023/06/17 08:47:29;;;;;;;114.60;89.10;;;;;;;26.07;37.81;96542.47;2062197;28;20253;-59
2023/06/17 08:48:31;;;;;;;60.85;40.22;;;;;;;26.05;37.87;96531.91;2066067;28;20209;-61
2023/06/17 08:49:33;;;;;;;13.50;8.95;;;;;;;25.99;38.08;96534.41;2066989;28;20658;-59
2023/06/17 08:50:36;;;;;;;13.18;5.88;;;;;;;25.67;38.48;96534.22;2066293;28;20220;-59
2023/06/17 08:51:39;;;;;;;5.75;3.83;;;;;;;25.42;38.08;96534.22;2065346;28;20195;-59
2023/06/17 08:52:42;;;;;;;7.65;4.07;;;;;;;25.23;38.78;96539.81;2065360;28;20304;-59
2023/06/17 08:53:45;;;;;;;6.72;4.28;;;;;;;25.38;38.63;96540.03;2064911;28;20206;-60
2023/06/17 08:54:48;;;;;;;6.57;3.15;;;;;;;25.87;38.18;96532.06;2065266;28;20206;-59
2023/06/17 08:55:49;;;;;;;6.75;4.47;;;;;;;26.32;36.78;96537.06;2065270;28;20209;-59
2023/06/17 08:56:53;;;;;;;7.90;4.70;;;;;;;26.60;36.58;96534.84;2064308;28;20290;-60
2023/06/17 08:57:55;;;;;;;6.15;3.53;;;;;;;26.60;36.75;96531.31;2066517;28;20285;-60
2023/06/17 08:58:56;;;;;;;7.57;4.05;;;;;;;26.63;36.32;96542.50;2066797;28;20209;-59
2023/06/17 08:59:58;;;;;;;7.30;4.38;;;;;;;26.95;35.62;96548.78;2066780;28;20202;-59
2023/06/17 09:00:59;;;;;;;8.75;4.35;;;;;;;26.82;34.19;96541.31;2067436;28;20197;-59
2023/06/17 09:02:01;;;;;;;7.50;3.75;;;;;;;27.07;33.15;96543.91;2065053;28;20210;-60
2023/06/17 09:03:07;;;;;;;5.10;3.58;;;;;;;27.33;32.31;96543.56;2064997;28;20225;-60
2023/06/17 09:04:11;;;;;;;5.35;3.53;;;;;;;27.42;31.66;96540.88;2064511;28;20202;-60
2023/06/17 09:05:12;;;;;;;7.40;3.95;;;;;;;26.89;32.08;96544.13;2067062;28;20204;-59
2023/06/17 09:06:25;;;;;;;13.23;3.28;;;;;;;27.09;32.08;96541.84;2065379;28;20205;-60
2023/06/17 09:07:26;;;;;;;8.93;3.75;;;;;;;27.54;31.64;96545.66;2065435;28;20312;-60
2023/06/17 09:08:29;;;;;;;5.10;3.35;;;;;;;27.68;32.20;96541.38;2066152;28;20229;-59
2023/06/17 09:09:31;;;;;;;5.80;3.92;;;;;;;27.89;31.58;96541.72;2066855;28;20564;-60
2023/06/17 09:10:43;;;;;;;6.65;2.85;;;;;;;27.19;31.22;96542.47;2062209;28;20222;-59
2023/06/17 09:11:50;;;;;;;4.43;3.10;;;;;;;26.86;31.52;96553.34;2065430;28;20871;-60
2023/06/17 09:12:58;;;;;;;6.20;3.40;;;;;;;26.81;31.90;96547.66;2063389;28;20226;-60
2023/06/17 09:14:01;;;;;;;7.85;3.30;;;;;;;26.31;31.94;96546.94;2062340;28;20203;-60
2023/06/17 09:15:03;;;;;;;6.20;3.40;;;;;;;25.89;32.36;96539.91;2062681;28;20206;-60
2023/06/17 09:16:04;;;;;;;10.18;3.20;;;;;;;25.65;32.96;96544.28;2065792;28;20202;-60
2023/06/17 09:17:06;;;;;;;5.65;2.90;;;;;;;25.81;33.56;96550.63;2066183;28;20201;-60
2023/06/17 09:18:08;;;;;;;5.55;3.10;;;;;;;25.43;35.45;96551.06;2062117;28;20202;-59
2023/06/17 09:19:09;;;;;;;9.07;3.70;;;;;;;25.32;36.40;96535.31;2062549;28;20242;-60
2023/06/17 09:20:15;;;;;;;10.60;3.45;;;;;;;25.84;36.21;96545.78;2064392;28;20209;-60
2023/06/17 09:21:17;;;;;;;9.15;4.25;;;;;;;26.44;36.07;96548.28;2065078;28;20202;-60
2023/06/17 09:22:19;;;;;;;6.80;3.88;;;;;;;26.61;36.29;96530.31;2064648;28;20337;-60
2023/06/17 09:23:22;;;;;;;6.30;3.88;;;;;;;27.02;35.74;96544.41;2061875;28;20202;-60
2023/06/17 09:24:30;;;;;;;7.82;3.83;;;;;;;26.92;36.37;96543.78;2063511;28;20198;-60
2023/06/17 09:25:35;;;;;;;36.50;24.05;;;;;;;27.15;36.09;96534.97;2067296;28;20197;-60
2023/06/17 09:26:41;;;;;;;22.10;13.63;;;;;;;27.63;34.65;96538.38;2062876;28;20203;-60
2023/06/17 09:27:46;;;;;;;33.22;24.52;;;;;;;27.74;34.04;96541.66;2064840;28;20217;-59
2023/06/17 09:29:05;;;;;;;10.57;7.45;;;;;;;28.01;33.76;96541.09;2064952;28;20861;-59
2023/06/17 09:30:09;;;;;;;8.68;4.32;;;;;;;27.78;34.17;96538.47;2063916;28;20202;-60
2023/06/17 09:31:12;;;;;;;6.47;3.70;;;;;;;27.47;33.98;96535.81;2060236;28;20199;-59
2023/06/17 09:32:13;;;;;;;9.07;3.70;;;;;;;27.99;33.59;96536.94;2058821;28;20313;-59
2023/06/17 09:33:19;;;;;;;9.57;3.70;;;;;;;27.84;34.01;96536.88;2058859;28;20203;-59
2023/06/17 09:34:22;;;;;;;11.50;4.30;;;;;;;27.88;34.30;96532.00;2060239;28;20206;-59
2023/06/17 09:35:23;;;;;;;8.98;4.43;;;;;;;27.68;32.98;96532.47;2060007;28;20190;-59
2023/06/17 09:36:25;;;;;;;8.27;3.22;;;;;;;27.86;33.35;96538.38;2059301;28;20614;-59
2023/06/17 09:37:27;;;;;;;5.75;4.13;;;;;;;28.02;33.21;96534.72;2056528;28;20234;-59
2023/06/17 09:38:29;;;;;;;10.70;4.28;;;;;;;27.43;32.95;96532.66;2059432;28;20194;-59
2023/06/17 09:39:32;;;;;;;10.10;4.20;;;;;;;27.07;33.27;96535.84;2060885;28;20198;-59
2023/06/17 09:40:34;;;;;;;6.80;4.07;;;;;;;26.60;32.88;96531.31;2060668;28;20202;-59
2023/06/17 09:41:37;;;;;;;7.18;3.63;;;;;;;26.53;33.57;96532.00;2059239;28;20706;-59
2023/06/17 09:42:39;;;;;;;5.60;3.47;;;;;;;26.39;33.60;96535.38;2056338;28;20223;-59
2023/06/17 09:43:41;;;;;;;8.82;3.90;;;;;;;26.35;33.60;96528.72;2058454;28;20195;-59
2023/06/17 09:44:46;;;;;;;7.93;4.10;;;;;;;26.54;33.22;96533.66;2058709;28;20246;-59
2023/06/17 09:45:49;;;;;;;3.97;3.00;;;;;;;26.70;33.13;96531.94;2059364;28;20199;-59
2023/06/17 09:46:52;;;;;;;13.73;4.00;;;;;;;26.93;32.97;96532.06;2058782;28;20281;-59
2023/06/17 09:47:54;;;;;;;7.85;3.72;;;;;;;27.33;33.28;96521.31;2056625;28;20199;-59
2023/06/17 09:48:58;;;;;;;5.15;3.45;;;;;;;27.79;32.86;96525.88;2057331;28;20203;-59
2023/06/17 09:50:08;;;;;;;5.72;3.63;;;;;;;28.28;32.10;96522.78;2060004;28;20226;-59
2023/06/17 09:51:12;;;;;;;5.40;3.45;;;;;;;28.48;32.14;96527.59;2059295;28;20213;-59
2023/06/17 09:52:13;;;;;;;15.27;3.95;;;;;;;28.50;32.43;96531.75;2061471;28;20230;-59
2023/06/17 09:53:15;;;;;;;6.43;4.28;;;;;;;28.49;32.56;96526.56;2056655;28;20683;-59
2023/06/17 09:54:19;;;;;;;5.45;3.17;;;;;;;28.77;33.31;96524.13;2059259;28;20207;-59
2023/06/17 09:55:22;;;;;;;6.55;3.42;;;;;;;28.57;32.36;96518.44;2060111;28;20236;-59
2023/06/17 09:56:25;;;;;;;6.70;3.90;;;;;;;28.55;32.73;96533.06;2060219;28;20294;-59
2023/06/17 09:57:31;;;;;;;12.35;3.80;;;;;;;28.50;32.18;96534.44;2060745;28;20230;-59
2023/06/17 09:58:34;;;;;;;9.65;3.83;;;;;;;28.76;32.48;96535.88;2060763;28;20214;-59
2023/06/17 09:59:36;;;;;;;8.93;4.18;;;;;;;28.64;32.19;96534.63;2059655;28;20554;-59
2023/06/17 10:00:37;;;;;;;8.45;4.03;;;;;;;28.46;32.40;96535.00;2056421;28;20211;-59
2023/06/17 10:01:39;;;;;;;8.23;3.40;;;;;;;28.31;31.19;96524.25;2056715;28;20261;-59
2023/06/17 10:02:41;;;;;;;4.50;3.42;;;;;;;27.92;32.05;96520.75;2060851;28;20230;-59
2023/06/17 10:03:42;;;;;;;6.93;3.70;;;;;;;26.61;33.12;96516.91;2056795;28;20207;-59
2023/06/17 10:04:44;;;;;;;5.35;3.95;;;;;;;27.29;33.10;96526.19;2056520;28;20762;-59
2023/06/17 10:05:53;;;;;;;5.13;3.13;;;;;;;27.69;32.13;96520.75;2059969;28;20751;-60
2023/06/17 10:06:57;;;;;;;6.63;4.38;;;;;;;27.98;33.27;96521.84;2061643;28;20855;-59
2023/06/17 10:07:59;;;;;;;6.13;3.10;;;;;;;28.09;33.31;96520.63;2060612;28;20260;-59
2023/06/17 10:09:14;;;;;;;4.80;3.33;;;;;;;27.94;32.82;96509.81;2060307;28;20673;-58
2023/06/17 10:10:17;;;;;;;4.80;3.22;;;;;;;28.37;32.47;96518.16;2059352;28;20198;-59
2023/06/17 10:11:20;;;;;;;8.43;4.22;;;;;;;28.38;31.74;96514.47;2058899;28;20241;-59
2023/06/17 10:12:24;;;;;;;10.00;3.67;;;;;;;28.40;31.32;96511.59;2060213;28;20233;-59
2023/06/17 10:13:27;;;;;;;4.68;3.42;;;;;;;28.57;30.61;96506.84;2060100;28;20194;-59
2023/06/17 10:14:33;;;;;;;5.25;3.33;;;;;;;28.46;30.87;96508.97;2060291;28;20717;-59
2023/06/17 10:15:37;;;;;;;5.60;3.22;;;;;;;28.40;30.44;96506.22;2059935;28;20195;-59
2023/06/17 10:16:45;;;;;;;5.22;3.20;;;;;;;28.57;30.42;96507.69;2057702;28;20261;-59
2023/06/17 10:17:48;;;;;;;4.82;2.97;;;;;;;28.35;29.96;96509.44;2058294;28;20227;-59
2023/06/17 10:18:53;;;;;;;9.88;3.15;;;;;;;27.71;30.56;96510.69;2056139;28;20623;-59
2023/06/17 10:19:55;;;;;;;8.77;2.78;;;;;;;27.91;31.02;96507.47;2059266;28;20215;-59
2023/06/17 10:20:57;;;;;;;5.20;3.70;;;;;;;28.56;31.08;96515.94;2059498;28;20290;-59
2023/06/17 10:22:05;;;;;;;4.15;2.90;;;;;;;28.67;30.27;96507.44;2055891;28;20249;-59
2023/06/17 10:23:07;;;;;;;5.55;3.38;;;;;;;28.76;29.89;96511.72;2057197;28;20924;-59
2023/06/17 10:24:10;;;;;;;6.15;3.72;;;;;;;28.75;30.81;96510.03;2057157;28;20230;-58
2023/06/17 10:25:15;;;;;;;6.85;2.85;;;;;;;28.51;30.86;96505.75;2056690;28;20855;-58
2023/06/17 10:26:21;;;;;;;3.72;2.80;;;;;;;28.61;30.87;96513.53;2058805;28;20199;-58
2023/06/17 10:27:22;;;;;;;6.72;4.10;;;;;;;28.39;31.44;96510.75;2059214;28;20438;-58
2023/06/17 10:28:24;;;;;;;9.88;3.80;;;;;;;29.03;31.61;96509.34;2056652;28;20526;-59
2023/06/17 10:29:25;;;;;;;4.55;3.33;;;;;;;29.25;30.96;96512.06;2059398;28;20246;-59
2023/06/17 10:30:28;;;;;;;9.85;3.38;;;;;;;29.43;30.81;96507.16;2058754;28;20191;-59
2023/06/17 10:31:31;;;;;;;6.90;3.50;;;;;;;29.72;30.78;96509.88;2056415;28;20226;-59
2023/06/17 10:32:33;;;;;;;10.07;4.15;;;;;;;29.35;30.81;96512.63;2058706;28;20218;-59
2023/06/17 10:33:34;;;;;;;7.03;3.22;;;;;;;29.21;30.33;96505.41;2059033;28;20194;-59
2023/06/17 10:34:36;;;;;;;8.07;4.03;;;;;;;27.76;32.15;96508.28;2058741;28;20191;-59
2023/06/17 10:35:42;;;;;;;8.45;3.75;;;;;;;27.70;32.10;96506.31;2059291;28;20492;-59
2023/06/17 10:36:57;;;;;;;9.38;4.10;;;;;;;26.73;33.03;96502.19;2058012;28;20648;-58
2023/06/17 10:37:58;;;;;;;6.22;3.50;;;;;;;26.04;34.04;96507.97;2058886;28;20229;-59
2023/06/17 10:39:06;;;;;;;8.73;3.78;;;;;;;26.81;33.25;96498.63;2059804;28;20302;-59
2023/06/17 10:40:31;;;;;;;11.05;4.10;;;;;;;26.98;33.13;96500.25;2060366;28;20219;-59
2023/06/17 10:41:41;;;;;;;9.70;4.65;;;;;;;28.11;32.34;96500.63;2059390;28;20225;-59
2023/06/17 10:43:01;;;;;;;5.28;3.50;;;;;;;28.23;32.10;96495.66;2058039;28;20234;-59
2023/06/17 10:44:39;;;;;;;7.25;3.60;;;;;;;28.90;32.22;96496.59;2059219;28;20233;-59
2023/06/17 10:45:48;;;;;;;6.38;3.63;;;;;;;29.06;31.87;96500.06;2059098;28;20333;-59
2023/06/17 10:46:50;;;;;;;8.65;3.60;;;;;;;29.41;32.51;96498.41;2058931;28;20864;-59
2023/06/17 10:48:15;;;;;;;4.70;3.88;;;;;;;29.56;31.82;96510.97;2059436;28;20230;-59
2023/06/17 10:49:18;;;;;;;5.55;4.18;;;;;;;29.17;31.84;96502.28;2059550;28;20224;-59
2023/06/17 10:50:21;;;;;;;7.15;3.85;;;;;;;29.48;32.10;96504.72;2059910;28;20195;-59
2023/06/17 10:51:24;;;;;;;9.80;3.75;;;;;;;29.38;31.83;96498.81;2059433;28;20581;-58
2023/06/17 10:52:42;;;;;;;5.35;3.63;;;;;;;28.30;32.75;96493.91;2058461;28;20215;-59
2023/06/17 10:53:51;;;;;;;8.75;3.85;;;;;;;28.87;32.37;96491.56;2056837;28;20214;-59
2023/06/17 10:54:54;;;;;;;6.22;3.38;;;;;;;29.52;31.60;96490.88;2057506;28;20199;-59
2023/06/17 10:55:57;;;;;;;8.77;4.05;;;;;;;29.98;31.55;96498.56;2059267;28;20557;-59
2023/06/17 10:57:04;;;;;;;6.07;4.00;;;;;;;29.69;31.28;96497.66;2056096;28;20214;-59
2023/06/17 10:58:06;;;;;;;12.60;3.80;;;;;;;29.16;31.56;96492.53;2058532;28;20428;-58
2023/06/17 10:59:08;;;;;;;7.67;4.20;;;;;;;28.71;32.43;96489.09;2060211;28;20510;-59
2023/06/17 11:00:11;;;;;;;8.20;4.20;;;;;;;29.05;31.57;96488.50;2058848;28;20431;-59
2023/06/17 11:01:14;;;;;;;6.10;2.97;;;;;;;29.36;31.85;96490.09;2058172;28;20947;-59
2023/06/17 11:02:15;;;;;;;6.27;3.53;;;;;;;29.91;31.41;96482.34;2059032;28;20460;-59
2023/06/17 11:03:17;;;;;;;6.70;3.83;;;;;;;30.34;30.38;96497.56;2058452;28;20858;-59
2023/06/17 11:04:19;;;;;;;6.70;3.75;;;;;;;30.04;30.61;96491.56;2059150;28;20927;-59
2023/06/17 11:05:21;;;;;;;6.80;3.87;;;;;;;30.12;29.77;96494.94;2059159;28;20254;-59
2023/06/17 11:06:22;;;;;;;8.97;3.73;;;;;;;29.97;29.24;96481.56;2057832;28;20436;-59
2023/06/17 11:07:27;;;;;;;6.80;4.00;;;;;;;29.51;29.16;96490.03;2057895;28;20449;-59
2023/06/17 11:08:30;;;;;;;9.73;3.40;;;;;;;29.73;30.12;96487.34;2059276;28;20576;-59
2023/06/17 11:09:33;;;;;;;6.13;3.57;;;;;;;30.03;29.42;96482.66;2059094;28;20421;-59
2023/06/17 11:10:35;;;;;;;7.63;3.50;;;;;;;29.97;29.39;96486.13;2061953;28;20524;-59
2023/06/17 11:11:37;;;;;;;7.90;4.00;;;;;;;29.63;30.03;96487.66;2063143;28;20559;-59
2023/06/17 11:12:39;;;;;;;5.63;3.37;;;;;;;29.24;31.12;96486.22;2060934;28;20551;-59
2023/06/17 11:13:50;;;;;;;4.53;3.60;;;;;;;29.01;30.94;96473.75;2059825;28;21353;-59
2023/06/17 11:14:52;;;;;;;6.07;3.20;;;;;;;28.67;31.16;96492.16;2059836;28;20761;-59
2023/06/17 11:15:55;;;;;;;6.00;3.60;;;;;;;28.95;30.46;96491.47;2058930;28;20451;-58
2023/06/17 11:16:57;;;;;;;4.03;3.13;;;;;;;28.99;30.69;96490.06;2058038;28;20488;-58
2023/06/17 11:18:05;;;;;;;17.20;4.53;;;;;;;29.29;30.38;96489.19;2058457;28;20206;-59
2023/06/17 11:19:07;;;;;;;8.03;3.53;;;;;;;29.11;29.94;96487.72;2060045;28;20472;-59
2023/06/17 11:20:11;;;;;;;5.60;3.47;;;;;;;28.88;30.50;96495.13;2058787;28;20425;-59
2023/06/17 11:21:13;;;;;;;4.57;3.67;;;;;;;29.00;29.91;96493.59;2056066;28;20440;-58
2023/06/17 11:22:15;;;;;;;3.63;3.20;;;;;;;29.37;29.33;96496.28;2056375;28;20467;-59
2023/06/17 11:23:18;;;;;;;20.77;13.40;;;;;;;29.10;29.48;96482.53;2059003;28;20468;-59
2023/06/17 11:24:19;;;;;;;33.50;21.87;;;;;;;29.64;29.31;96489.34;2061686;28;20950;-60
2023/06/17 11:25:21;;;;;;;8.53;4.10;;;;;;;29.96;28.68;96485.28;2055783;28;20425;-58
2023/06/17 11:26:42;;;;;;;6.40;3.60;;;;;;;29.77;29.48;96486.75;2060581;28;20443;-58
2023/06/17 11:27:47;;;;;;;7.68;3.10;;;;;;;30.02;28.82;96494.44;2059645;28;20526;-59
2023/06/17 11:28:48;;;;;;;8.03;3.10;;;;;;;29.89;28.53;96478.19;2058612;28;21247;-58
2023/06/17 11:29:51;;;;;;;5.32;3.25;;;;;;;29.71;28.60;96482.16;2057650;28;20996;-58
2023/06/17 11:30:55;;;;;;;4.50;3.37;;;;;;;28.73;29.54;96481.69;2055846;28;20195;-59
2023/06/17 11:32:01;;;;;;;4.90;3.57;;;;;;;28.26;29.06;96478.34;2057712;28;20439;-58
2023/06/17 11:33:04;;;;;;;4.73;3.30;;;;;;;28.82;29.85;96483.25;2059477;28;20437;-58
2023/06/17 11:34:08;;;;;;;5.07;3.20;;;;;;;28.81;29.52;96477.06;2058844;28;20464;-59
2023/06/17 11:35:10;;;;;;;4.97;3.58;;;;;;;28.62;29.48;96474.91;2058172;28;20472;-58
2023/06/17 11:36:13;;;;;;;4.00;3.00;;;;;;;28.50;29.43;96466.50;2058306;28;20203;-59
2023/06/17 11:37:16;;;;;;;6.30;4.07;;;;;;;28.96;30.02;96473.50;2055587;28;20460;-58
2023/06/17 11:38:20;;;;;;;8.45;3.28;;;;;;;29.49;29.01;96471.38;2057015;28;20967;-58
2023/06/17 11:39:23;;;;;;;5.78;2.85;;;;;;;29.83;28.85;96474.41;2056698;28;20208;-59
2023/06/17 11:40:24;;;;;;;5.00;2.80;;;;;;;29.63;28.72;96474.22;2057880;28;20812;-58
2023/06/17 11:41:27;;;;;;;4.53;3.63;;;;;;;30.26;28.08;96481.56;2057237;28;20483;-59
2023/06/17 11:42:28;;;;;;;7.73;3.83;;;;;;;30.47;28.02;96477.97;2060685;28;20232;-58
2023/06/17 11:43:30;;;;;;;4.13;3.27;;;;;;;30.19;28.41;96478.81;2057948;28;20428;-59
2023/06/17 11:44:33;;;;;;;7.75;3.30;;;;;;;29.09;28.71;96472.81;2059086;28;20487;-59
2023/06/17 11:45:35;;;;;;;13.13;3.90;;;;;;;29.37;28.94;96478.31;2059968;28;20202;-58
2023/06/17 11:46:41;;;;;;;10.50;3.57;;;;;;;29.86;27.94;96473.16;2059071;28;20491;-58
2023/06/17 11:47:42;;;;;;;5.90;3.03;;;;;;;30.15;28.22;96471.34;2057590;28;20833;-58
2023/06/17 11:48:46;;;;;;;3.83;3.13;;;;;;;30.73;27.70;96474.59;2059594;28;20433;-58
2023/06/17 11:49:47;;;;;;;5.13;3.53;;;;;;;31.12;27.60;96474.16;2057917;28;20428;-58
2023/06/17 11:50:49;;;;;;;5.83;3.30;;;;;;;30.70;27.44;96472.31;2057909;28;20429;-58
2023/06/17 11:51:51;;;;;;;4.97;3.70;;;;;;;30.45;27.67;96472.78;2055510;28;20489;-59
2023/06/17 11:52:54;;;;;;;5.47;2.77;;;;;;;30.97;27.23;96472.44;2056534;28;20445;-58
2023/06/17 11:53:55;;;;;;;5.27;3.47;;;;;;;30.69;26.49;96469.81;2059248;28;20424;-58
2023/06/17 11:54:57;;;;;;;6.23;2.80;;;;;;;30.77;26.96;96465.09;2059935;28;20440;-58
2023/06/17 11:56:05;;;;;;;7.43;3.40;;;;;;;30.63;27.60;96466.06;2057653;28;20429;-58
2023/06/17 11:57:07;;;;;;;4.40;3.00;;;;;;;31.39;27.05;96470.50;2057683;28;20431;-59
2023/06/17 11:58:09;;;;;;;8.90;3.17;;;;;;;31.59;26.76;96464.28;2059103;28;20429;-58
2023/06/17 11:59:13;;;;;;;5.70;2.80;;;;;;;31.59;26.91;96467.81;2059181;28;20429;-58
2023/06/17 12:00:15;;;;;;;7.90;3.30;;;;;;;30.97;27.44;96472.44;2058435;28;20429;-58
2023/06/17 12:01:24;;;;;;;5.03;3.10;;;;;;;30.82;27.43;96467.19;2055849;28;20844;-58
2023/06/17 12:02:27;;;;;;;6.10;3.30;;;;;;;31.02;27.92;96471.81;2057604;28;20541;-59
2023/06/17 12:03:29;;;;;;;7.37;3.03;;;;;;;30.80;27.80;96471.94;2055996;28;20464;-58
2023/06/17 12:04:31;;;;;;;11.83;3.67;;;;;;;30.86;27.61;96464.91;2056626;28;20429;-58
2023/06/17 12:05:33;;;;;;;8.20;3.40;;;;;;;30.87;27.25;96469.28;2055710;28;20707;-58
2023/06/17 12:06:35;;;;;;;4.30;3.00;;;;;;;30.87;27.84;96463.91;2057065;28;20433;-58
2023/06/17 12:07:41;;;;;;;4.90;3.27;;;;;;;31.19;27.49;96475.84;2055156;28;20461;-58
2023/06/17 12:08:42;;;;;;;4.43;3.30;;;;;;;31.16;27.74;96472.72;2058791;28;20425;-58
2023/06/17 12:09:51;;;;;;;9.63;5.23;;;;;;;30.96;28.12;96476.16;2058770;28;20440;-59
2023/06/17 12:10:53;;;;;;;12.50;10.10;;;;;;;30.91;27.76;96467.84;2058845;28;20425;-59
2023/06/17 12:11:54;;;;;;;21.87;15.83;;;;;;;30.60;27.63;96470.00;2055104;28;20433;-59
2023/06/17 12:12:57;;;;;;;26.93;22.03;;;;;;;30.98;27.61;96468.69;2056763;28;20444;-59
2023/06/17 12:13:59;;;;;;;6.80;4.00;;;;;;;30.62;27.35;96467.91;2058652;28;20436;-59
2023/06/17 12:15:03;;;;;;;7.13;3.37;;;;;;;30.94;27.59;96475.50;2057969;28;20433;-59
2023/06/17 12:16:35;;;;;;;9.63;3.90;;;;;;;30.63;28.65;96474.16;2059843;28;20432;-59
2023/06/17 12:17:37;;;;;;;6.17;3.93;;;;;;;30.14;27.98;96473.19;2058487;28;20865;-59
2023/06/17 12:18:48;;;;;;;6.00;3.50;;;;;;;29.97;28.19;96467.28;2058749;28;20958;-59
2023/06/17 12:19:49;;;;;;;7.53;4.00;;;;;;;30.36;28.46;96471.28;2058565;28;20425;-59
2023/06/17 12:20:51;;;;;;;11.13;4.00;;;;;;;30.46;28.28;96460.97;2059633;28;21092;-59
2023/06/17 12:21:52;;;;;;;5.43;3.63;;;;;;;30.10;27.88;96464.69;2057558;28;21013;-59
2023/06/17 12:22:54;;;;;;;5.73;3.60;;;;;;;29.54;28.33;96467.31;2059130;28;20961;-59
2023/06/17 12:23:56;;;;;;;7.60;3.07;;;;;;;29.98;29.01;96468.97;2057077;28;20433;-59
2023/06/17 12:24:58;;;;;;;8.80;4.40;;;;;;;30.12;28.17;96468.00;2055634;28;20429;-59
2023/06/17 12:26:01;;;;;;;7.90;3.47;;;;;;;30.22;28.56;96461.44;2056848;28;20426;-59
2023/06/17 12:27:03;;;;;;;5.20;3.70;;;;;;;30.34;28.27;96457.16;2054876;28;20507;-59
2023/06/17 12:28:05;;;;;;;5.50;3.90;;;;;;;30.60;28.31;96463.75;2056139;28;20571;-59
2023/06/17 12:29:06;;;;;;;7.17;3.53;;;;;;;30.38;28.12;96461.13;2059303;28;20812;-59
2023/06/17 12:30:25;;;;;;;4.70;3.27;;;;;;;30.28;28.08;96448.03;2057470;28;20540;-59
2023/06/17 12:31:27;;;;;;;10.70;3.30;;;;;;;30.89;28.18;96462.66;2059684;28;20489;-59
2023/06/17 12:32:28;;;;;;;5.13;4.00;;;;;;;30.86;27.96;96460.34;2058084;28;20456;-59
2023/06/17 12:33:30;;;;;;;5.47;3.27;;;;;;;30.90;27.62;96455.41;2055828;28;20440;-59
2023/06/17 12:34:31;;;;;;;5.67;3.70;;;;;;;30.25;27.11;96453.81;2057895;28;20511;-59
2023/06/17 12:35:33;;;;;;;10.50;3.73;;;;;;;30.72;28.04;96448.69;2056965;28;20435;-59
2023/06/17 12:36:34;;;;;;;5.43;3.70;;;;;;;30.96;27.45;96451.91;2057801;28;20441;-59
2023/06/17 12:37:39;;;;;;;4.90;2.90;;;;;;;31.05;26.94;96441.75;2057803;28;20607;-59
2023/06/17 12:38:41;;;;;;;9.00;3.73;;;;;;;31.32;27.25;96453.47;2057737;28;20520;-59
2023/06/17 12:39:43;;;;;;;7.20;3.10;;;;;;;31.72;27.59;96453.53;2057352;28;20478;-60
2023/06/17 12:40:44;;;;;;;5.63;3.13;;;;;;;31.69;26.58;96443.16;2058381;28;20791;-60
2023/06/17 12:41:46;;;;;;;4.40;3.70;;;;;;;31.12;27.23;96433.72;2057346;28;20552;-59
2023/06/17 12:42:47;;;;;;;7.20;3.70;;;;;;;30.94;26.77;96438.63;2055014;28;20483;-59
2023/06/17 12:43:49;;;;;;;6.70;3.80;;;;;;;31.54;27.13;96437.94;2057243;28;20933;-59
2023/06/17 12:44:51;;;;;;;9.97;3.70;;;;;;;31.61;27.37;96439.81;2057506;28;20428;-59
2023/06/17 12:45:54;;;;;;;6.83;3.67;;;;;;;31.73;27.17;96433.63;2059922;28;20863;-59
2023/06/17 12:46:56;;;;;;;6.30;3.73;;;;;;;31.67;26.62;96442.53;2063623;28;20470;-59
2023/06/17 12:47:57;;;;;;;6.47;3.50;;;;;;;31.15;27.56;96439.53;2059282;28;20515;-59
2023/06/17 12:48:59;;;;;;;10.80;3.20;;;;;;;31.38;27.13;96439.16;2055666;28;20459;-59
2023/06/17 12:50:01;;;;;;;4.80;3.23;;;;;;;31.58;27.62;96439.19;2056896;28;20959;-59
2023/06/17 12:51:03;;;;;;;6.93;4.17;;;;;;;30.93;27.07;96438.81;2055653;28;20912;-59
2023/06/17 12:52:05;;;;;;;4.67;3.20;;;;;;;30.51;27.53;96443.41;2055550;28;20515;-59
2023/06/17 12:53:07;;;;;;;6.10;3.10;;;;;;;30.35;27.50;96434.59;2055654;28;20437;-59
2023/06/17 12:54:09;;;;;;;10.17;3.50;;;;;;;30.58;27.79;96434.34;2056442;28;20441;-59
2023/06/17 12:55:10;;;;;;;5.50;3.50;;;;;;;30.97;27.62;96439.25;2060092;28;20973;-59
2023/06/17 12:56:12;;;;;;;4.50;2.83;;;;;;;31.48;27.76;96433.38;2055519;28;20519;-59
2023/06/17 12:57:13;;;;;;;13.80;3.20;;;;;;;31.38;27.20;96431.06;2055346;28;20476;-59
2023/06/17 12:58:16;;;;;;;7.83;3.30;;;;;;;31.47;27.59;96430.88;2059794;28;20872;-59
2023/06/17 12:59:18;;;;;;;8.30;3.30;;;;;;;30.95;27.57;96424.09;2059279;28;21089;-59
2023/06/17 13:00:19;;;;;;;6.60;3.40;;;;;;;31.07;27.89;96432.47;2060563;28;20924;-59
2023/06/17 13:01:21;;;;;;;5.77;3.37;;;;;;;30.80;28.24;96433.38;2055588;28;20960;-59
2023/06/17 13:02:22;;;;;;;6.47;3.30;;;;;;;30.76;28.05;96436.47;2056503;28;20471;-59
2023/06/17 13:03:24;;;;;;;5.30;3.50;;;;;;;30.43;28.30;96431.72;2058283;28;20553;-59
2023/06/17 13:04:26;;;;;;;10.80;3.03;;;;;;;30.36;28.31;96425.50;2059541;28;20424;-59
2023/06/17 13:05:28;;;;;;;4.97;2.90;;;;;;;30.64;28.43;96427.31;2060602;28;20795;-60
2023/06/17 13:06:30;;;;;;;5.93;3.43;;;;;;;31.10;28.00;96429.34;2061474;28;20428;-59
2023/06/17 13:07:31;;;;;;;4.80;3.53;;;;;;;31.15;27.88;96433.28;2060270;28;20971;-59
2023/06/17 13:08:33;;;;;;;8.13;3.47;;;;;;;30.74;28.28;96421.53;2059903;28;20757;-59
2023/06/17 13:09:36;;;;;;;5.97;3.00;;;;;;;30.85;28.02;96422.84;2059632;28;20420;-59
2023/06/17 13:10:37;;;;;;;5.37;3.30;;;;;;;30.24;28.35;96422.53;2057111;28;20995;-59
2023/06/17 13:11:40;;;;;;;5.27;3.30;;;;;;;30.29;28.23;96413.84;2057409;28;20467;-59
2023/06/17 13:12:41;;;;;;;6.83;3.30;;;;;;;30.51;28.34;96421.88;2057998;28;20468;-59
2023/06/17 13:13:43;;;;;;;5.43;3.70;;;;;;;30.24;27.61;96422.53;2063061;28;21141;-59